Time;durP1;ratioP1;P1;durP2;ratioP2;P2;SDS_P1;SDS_P2;PMS_P1;PMS_P2;Temp;Humidity;BMP_temperature;BMP_pressure;BME280_temperature;BME280_humidity;BME280_pressure;Samples;Min_cycle;Max_cycle;Signal;HPM_P1;HPM_P2
2022/06/12 00:00:35;;;;;;;3.28;2.00;;;19.10;99.90;;;;;;5073748;28;20224;-61
2022/06/12 00:03:03;;;;;;;2.33;1.90;;;18.90;99.90;;;;;;5074414;28;20272;-61
2022/06/12 00:05:34;;;;;;;2.65;1.90;;;18.80;99.90;;;;;;5074731;28;20208;-61
2022/06/12 00:08:00;;;;;;;6.60;2.25;;;18.70;99.90;;;;;;5074105;28;20246;-61
2022/06/12 00:10:26;;;;;;;3.20;2.53;;;18.60;99.90;;;;;;5074224;28;20643;-61
2022/06/12 00:12:51;;;;;;;3.42;2.38;;;18.50;99.90;;;;;;5074445;28;20177;-61
2022/06/12 00:15:24;;;;;;;3.28;2.40;;;18.40;99.90;;;;;;5074015;28;20658;-61
2022/06/12 00:17:49;;;;;;;4.28;2.20;;;18.30;99.90;;;;;;5074081;28;20214;-61
2022/06/12 00:20:17;;;;;;;3.00;2.30;;;18.20;99.90;;;;;;5072837;28;20315;-61
2022/06/12 00:22:44;;;;;;;4.13;2.40;;;18.10;99.90;;;;;;5074162;28;20185;-61
2022/06/12 00:25:13;;;;;;;3.72;2.50;;;18.00;99.90;;;;;;5072831;28;20665;-61
2022/06/12 00:27:40;;;;;;;4.47;2.35;;;18.00;99.90;;;;;;5074129;28;20192;-61
2022/06/12 00:30:07;;;;;;;3.70;2.38;;;17.90;99.90;;;;;;5073058;28;20189;-61
2022/06/12 00:32:33;;;;;;;5.53;2.40;;;17.80;99.90;;;;;;5073516;28;20173;-61
2022/06/12 00:34:59;;;;;;;2.60;2.20;;;17.80;99.90;;;;;;5073153;28;20264;-61
2022/06/12 00:37:26;;;;;;;2.53;2.33;;;17.70;99.90;;;;;;5073774;28;20547;-61
2022/06/12 00:39:54;;;;;;;2.78;2.47;;;17.70;99.90;;;;;;5073488;28;20299;-61
2022/06/12 00:42:28;;;;;;;4.93;2.58;;;17.60;99.90;;;;;;5073615;28;20173;-61
2022/06/12 00:44:58;;;;;;;3.58;2.45;;;17.60;99.90;;;;;;5073399;28;20184;-61
2022/06/12 00:47:24;;;;;;;3.17;2.28;;;17.50;99.90;;;;;;5073488;28;20256;-61
2022/06/12 00:50:05;;;;;;;4.43;2.40;;;17.50;99.90;;;;;;5069744;28;20177;-61
2022/06/12 00:52:40;;;;;;;5.47;2.58;;;17.50;99.90;;;;;;5073336;28;20659;-61
2022/06/12 00:55:20;;;;;;;3.80;2.33;;;17.40;99.90;;;;;;5073646;28;20181;-61
2022/06/12 00:57:46;;;;;;;2.88;2.55;;;17.40;99.90;;;;;;5073248;28;20238;-61
2022/06/12 01:00:14;;;;;;;3.78;2.38;;;17.40;99.90;;;;;;5073179;28;20231;-61
2022/06/12 01:02:40;;;;;;;4.30;2.33;;;17.40;99.90;;;;;;5073741;28;20636;-61
2022/06/12 01:07:57;;;;;;;2.63;2.42;;;17.40;99.90;;;;;;5073545;28;20184;-61
2022/06/12 01:10:25;;;;;;;4.32;2.83;;;17.30;99.90;;;;;;5073101;28;20206;-61
2022/06/12 01:12:59;;;;;;;4.63;2.88;;;17.20;99.90;;;;;;5073399;28;20180;-61
2022/06/12 01:15:48;;;;;;;4.85;2.60;;;17.10;99.90;;;;;;5072918;28;20652;-61
2022/06/12 01:18:17;;;;;;;3.35;2.40;;;17.10;99.90;;;;;;5072920;28;20181;-61
2022/06/12 01:21:06;;;;;;;3.53;2.50;;;17.00;99.90;;;;;;5072581;28;20232;-61
2022/06/12 01:23:49;;;;;;;3.80;2.80;;;17.00;99.90;;;;;;5072319;28;20211;-61
2022/06/12 01:26:49;;;;;;;3.05;2.60;;;16.90;99.90;;;;;;5071013;28;20184;-61
2022/06/12 01:29:29;;;;;;;3.20;2.70;;;16.90;99.90;;;;;;5071928;28;20172;-61
2022/06/12 01:32:13;;;;;;;3.90;2.58;;;16.80;99.90;;;;;;5072789;28;20188;-61
2022/06/12 01:34:48;;;;;;;2.80;2.60;;;16.80;99.90;;;;;;5061783;28;20666;-61
2022/06/12 01:37:32;;;;;;;2.67;2.45;;;16.80;99.90;;;;;;5072519;28;20180;-61
2022/06/12 01:40:17;;;;;;;2.60;2.33;;;16.80;99.90;;;;;;5062028;28;20268;-61
2022/06/12 01:42:54;;;;;;;4.57;2.60;;;16.80;99.90;;;;;;5071444;28;20196;-61
2022/06/12 01:45:43;;;;;;;3.13;2.83;;;16.70;99.90;;;;;;5072593;28;20180;-61
2022/06/12 01:48:46;;;;;;;4.90;2.90;;;16.70;99.90;;;;;;5061368;28;20173;-61
2022/06/12 01:51:22;;;;;;;5.32;3.50;;;16.70;99.90;;;;;;5072337;28;20177;-61
2022/06/12 01:54:10;;;;;;;5.60;3.58;;;16.70;99.90;;;;;;5072425;28;20185;-61
2022/06/12 01:56:49;;;;;;;6.88;3.40;;;16.60;99.90;;;;;;5072010;28;20216;-61
2022/06/12 01:59:25;;;;;;;5.53;3.55;;;16.60;99.90;;;;;;5072332;28;20523;-61
2022/06/12 02:02:28;;;;;;;5.60;3.13;;;16.60;99.90;;;;;;5072245;28;20293;-61
2022/06/12 02:05:22;;;;;;;2.85;2.65;;;16.60;99.90;;;;;;5062434;28;20439;-61
2022/06/12 02:08:01;;;;;;;4.03;3.10;;;16.60;99.90;;;;;;5063891;28;20548;-61
2022/06/12 02:10:39;;;;;;;4.20;3.28;;;16.60;99.90;;;;;;5072356;28;20241;-61
2022/06/12 02:13:12;;;;;;;3.75;3.08;;;16.60;99.90;;;;;;5069527;28;20185;-61
2022/06/12 02:15:43;;;;;;;4.55;3.20;;;16.50;99.90;;;;;;5071917;28;20185;-61
2022/06/12 02:18:16;;;;;;;5.05;3.08;;;16.50;99.90;;;;;;5071597;28;20181;-61
2022/06/12 02:20:45;;;;;;;4.13;3.15;;;16.50;99.90;;;;;;5071917;28;20234;-61
2022/06/12 02:23:24;;;;;;;5.40;3.03;;;16.40;99.90;;;;;;5071516;28;20291;-61
2022/06/12 02:25:52;;;;;;;3.78;2.90;;;16.40;99.90;;;;;;5071803;28;20183;-61
2022/06/12 02:28:23;;;;;;;6.13;3.42;;;16.40;99.90;;;;;;5071931;28;20650;-61
2022/06/12 02:30:55;;;;;;;4.15;3.20;;;16.30;99.90;;;;;;5071325;28;20192;-61
2022/06/12 02:33:25;;;;;;;6.28;3.92;;;16.30;99.90;;;;;;5071407;28;20279;-61
2022/06/12 02:35:58;;;;;;;5.13;3.35;;;16.30;99.90;;;;;;5071192;28;20271;-61
2022/06/12 02:38:39;;;;;;;4.25;3.33;;;16.30;99.90;;;;;;5071989;28;20181;-61
2022/06/12 02:41:27;;;;;;;5.35;3.55;;;16.30;99.90;;;;;;5071267;28;20215;-61
2022/06/12 02:43:58;;;;;;;4.55;3.35;;;16.20;99.90;;;;;;5068491;28;20176;-61
2022/06/12 02:46:33;;;;;;;5.97;4.18;;;16.10;99.90;;;;;;5072044;28;20188;-61
2022/06/12 02:48:59;;;;;;;6.10;3.47;;;16.00;99.90;;;;;;5071642;28;20181;-61
2022/06/12 02:51:51;;;;;;;5.60;3.25;;;16.10;99.90;;;;;;5071070;28;20246;-61
2022/06/12 02:54:29;;;;;;;4.05;3.30;;;16.00;99.90;;;;;;5074940;28;20682;-61
2022/06/12 02:57:19;;;;;;;6.07;3.17;;;16.00;99.90;;;;;;5075713;28;20604;-61
2022/06/12 03:00:13;;;;;;;3.53;2.92;;;16.00;99.90;;;;;;5075234;28;20674;-61
2022/06/12 03:02:58;;;;;;;4.00;3.05;;;16.00;99.90;;;;;;5075637;28;20449;-61
2022/06/12 03:05:31;;;;;;;3.78;2.83;;;16.00;99.90;;;;;;5075173;28;20177;-61
2022/06/12 03:08:02;;;;;;;4.75;3.17;;;15.90;99.90;;;;;;5075631;28;20299;-61
2022/06/12 03:10:34;;;;;;;3.53;2.90;;;16.00;99.90;;;;;;5075370;28;20169;-61
2022/06/12 03:13:02;;;;;;;3.40;3.10;;;16.00;99.90;;;;;;5075278;28;20184;-61
2022/06/12 03:15:37;;;;;;;4.18;2.88;;;16.00;99.90;;;;;;5075071;28;20181;-61
2022/06/12 03:18:07;;;;;;;3.42;3.10;;;16.00;99.90;;;;;;5075361;28;20684;-61
2022/06/12 03:20:59;;;;;;;5.10;2.92;;;15.90;99.90;;;;;;5074746;28;20259;-61
2022/06/12 03:23:41;;;;;;;4.20;3.28;;;15.90;99.90;;;;;;5075155;28;20242;-61
2022/06/12 03:26:12;;;;;;;3.28;2.97;;;15.90;99.90;;;;;;5074954;28;20185;-61
2022/06/12 03:28:58;;;;;;;3.78;2.80;;;15.90;99.90;;;;;;5075614;28;20173;-61
2022/06/12 03:31:40;;;;;;;3.90;3.08;;;15.90;99.90;;;;;;5074760;28;20268;-61
2022/06/12 03:34:23;;;;;;;3.25;2.88;;;15.90;99.90;;;;;;5072651;28;20215;-61
2022/06/12 03:36:59;;;;;;;4.03;3.10;;;15.90;99.90;;;;;;5067204;28;20543;-60
2022/06/12 03:39:47;;;;;;;4.75;3.40;;;15.90;99.90;;;;;;5071357;28;20172;-61
2022/06/12 03:42:39;;;;;;;4.55;3.35;;;15.90;99.90;;;;;;5074808;28;20600;-61
2022/06/12 03:45:13;;;;;;;7.45;4.55;;;15.90;99.90;;;;;;5053302;28;20185;-61
2022/06/12 03:47:53;;;;;;;3.67;2.97;;;15.90;99.90;;;;;;5074503;28;20189;-60
2022/06/12 03:50:26;;;;;;;4.35;2.95;;;15.90;99.90;;;;;;5060924;28;20207;-61
2022/06/12 03:53:11;;;;;;;5.15;3.13;;;16.00;99.90;;;;;;5074756;28;20195;-61
2022/06/12 03:58:40;;;;;;;4.80;2.90;;;16.00;99.90;;;;;;5054994;28;20596;-61
2022/06/12 04:01:07;;;;;;;4.05;3.25;;;16.00;99.90;;;;;;5073294;28;20299;-61
2022/06/12 04:03:40;;;;;;;5.18;2.92;;;15.90;99.90;;;;;;5074177;28;20692;-61
2022/06/12 04:06:18;;;;;;;3.08;2.88;;;16.00;99.90;;;;;;5073859;28;20256;-61
2022/06/12 04:08:56;;;;;;;3.03;2.70;;;16.00;99.90;;;;;;5070775;28;20177;-61
2022/06/12 04:11:25;;;;;;;4.63;3.10;;;16.00;99.90;;;;;;5073896;28;20188;-61
2022/06/12 04:13:51;;;;;;;4.68;3.15;;;16.00;99.90;;;;;;5072753;28;20180;-61
2022/06/12 04:16:31;;;;;;;4.15;3.30;;;16.10;99.90;;;;;;5074535;28;20181;-61
2022/06/12 04:18:57;;;;;;;3.80;3.00;;;16.20;99.90;;;;;;5068992;28;20304;-61
2022/06/12 04:21:37;;;;;;;7.40;3.15;;;16.50;99.90;;;;;;5073986;28;20295;-61
2022/06/12 04:24:19;;;;;;;4.40;3.00;;;16.80;99.90;;;;;;5074374;28;20192;-61
2022/06/12 04:26:50;;;;;;;4.40;2.90;;;17.20;99.90;;;;;;5073956;28;20188;-61
2022/06/12 04:29:21;;;;;;;3.53;3.03;;;17.60;99.90;;;;;;5073923;28;20185;-61
2022/06/12 04:31:49;;;;;;;3.38;2.92;;;18.00;99.90;;;;;;5073985;28;20177;-61
2022/06/12 04:34:24;;;;;;;4.15;2.72;;;18.50;99.90;;;;;;5073445;28;20205;-61
2022/06/12 04:36:54;;;;;;;4.47;2.72;;;18.80;99.90;;;;;;5072866;28;20184;-61
2022/06/12 04:39:23;;;;;;;3.05;2.70;;;19.20;99.90;;;;;;5073006;28;20208;-61
2022/06/12 04:41:50;;;;;;;3.05;2.75;;;19.60;99.90;;;;;;5073065;28;20251;-61
2022/06/12 04:44:16;;;;;;;4.07;3.22;;;20.10;99.90;;;;;;5068742;28;20260;-61
2022/06/12 04:46:45;;;;;;;4.18;3.25;;;20.50;99.90;;;;;;5073797;28;20666;-61
2022/06/12 04:49:19;;;;;;;5.70;3.25;;;20.90;99.90;;;;;;5073191;28;20181;-61
2022/06/12 04:51:46;;;;;;;5.88;3.67;;;21.20;99.90;;;;;;5073512;28;20231;-60
2022/06/12 04:54:12;;;;;;;4.43;3.25;;;21.60;99.90;;;;;;5073400;28;20181;-61
2022/06/12 04:56:38;;;;;;;5.32;2.83;;;21.90;99.90;;;;;;5073580;28;20180;-61
2022/06/12 04:59:05;;;;;;;5.95;2.90;;;22.20;99.90;;;;;;5073471;28;20177;-61
2022/06/12 05:01:34;;;;;;;5.70;3.25;;;22.50;99.90;;;;;;5073368;28;20221;-61
2022/06/12 05:04:02;;;;;;;4.88;2.75;;;22.80;99.30;;;;;;5073361;28;20647;-60
2022/06/12 05:06:28;;;;;;;4.10;2.90;;;23.10;98.40;;;;;;5073348;28;20192;-60
2022/06/12 05:08:54;;;;;;;3.22;2.65;;;23.40;97.80;;;;;;5073242;28;20215;-62
2022/06/12 05:11:20;;;;;;;7.07;4.85;;;23.70;97.20;;;;;;5072924;28;20196;-60
2022/06/12 05:13:46;;;;;;;4.00;3.08;;;24.10;96.40;;;;;;5072912;28;20169;-59
2022/06/12 05:16:35;;;;;;;7.22;2.92;;;24.40;95.50;;;;;;5072665;28;20176;-58
2022/06/12 05:19:03;;;;;;;3.97;3.05;;;24.70;94.50;;;;;;5072584;28;20226;-57
2022/06/12 05:21:30;;;;;;;4.80;3.03;;;25.10;93.30;;;;;;5073084;28;20208;-57
2022/06/12 05:23:57;;;;;;;3.55;2.63;;;25.30;92.90;;;;;;5072878;28;20173;-57
2022/06/12 05:26:24;;;;;;;8.00;2.80;;;25.60;92.20;;;;;;5072955;28;20181;-57
2022/06/12 05:28:50;;;;;;;3.35;2.80;;;25.90;91.20;;;;;;5072459;28;20169;-58
2022/06/12 05:31:16;;;;;;;3.33;2.58;;;26.20;90.50;;;;;;5072592;28;20187;-57
2022/06/12 05:33:43;;;;;;;2.80;2.50;;;26.40;90.00;;;;;;5072909;28;20177;-58
2022/06/12 05:36:12;;;;;;;4.45;2.75;;;26.70;88.50;;;;;;5072722;28;20195;-57
2022/06/12 05:38:37;;;;;;;5.00;3.05;;;26.90;87.40;;;;;;5072280;28;20177;-58
2022/06/12 05:41:03;;;;;;;4.32;2.97;;;27.30;86.20;;;;;;5072696;28;20285;-58
2022/06/12 05:43:28;;;;;;;3.80;2.53;;;27.60;84.60;;;;;;5072423;28;20204;-58
2022/06/12 05:45:55;;;;;;;6.63;2.95;;;27.90;82.80;;;;;;5072387;28;20272;-57
2022/06/12 05:48:21;;;;;;;4.15;2.42;;;28.30;80.70;;;;;;5068240;28;20208;-57
2022/06/12 05:50:51;;;;;;;5.15;2.70;;;28.60;79.50;;;;;;5072634;28;20678;-58
2022/06/12 05:53:18;;;;;;;3.72;2.45;;;29.00;77.20;;;;;;5072427;28;20610;-57
2022/06/12 05:55:44;;;;;;;3.45;2.80;;;29.40;75.00;;;;;;5072330;28;20188;-58
2022/06/12 05:58:11;;;;;;;4.80;2.60;;;29.70;73.30;;;;;;5071502;28;20177;-58
2022/06/12 06:00:37;;;;;;;3.60;2.53;;;29.90;72.00;;;;;;5072370;28;20218;-58
2022/06/12 06:03:02;;;;;;;3.90;2.35;;;30.20;70.70;;;;;;5072165;28;20271;-59
2022/06/12 06:05:28;;;;;;;4.28;2.63;;;30.40;70.10;;;;;;5071179;28;20173;-59
2022/06/12 06:07:54;;;;;;;2.83;2.63;;;30.70;68.80;;;;;;5072232;28;20274;-59
2022/06/12 06:10:23;;;;;;;3.13;2.35;;;30.90;66.80;;;;;;5072139;28;20639;-59
2022/06/12 06:12:49;;;;;;;2.80;2.10;;;31.30;65.60;;;;;;5072125;28;20181;-60
2022/06/12 06:15:16;;;;;;;4.28;2.40;;;31.60;63.40;;;;;;5070987;28;20678;-59
2022/06/12 06:17:42;;;;;;;4.13;2.03;;;31.80;62.00;;;;;;5072121;28;20176;-59
2022/06/12 06:20:10;;;;;;;4.00;2.30;;;32.10;60.40;;;;;;5071809;28;20224;-59
2022/06/12 06:22:36;;;;;;;2.83;2.20;;;32.60;58.80;;;;;;5072074;28;20235;-59
2022/06/12 06:25:02;;;;;;;3.78;2.10;;;32.80;57.80;;;;;;5072140;28;20666;-59
2022/06/12 06:27:28;;;;;;;3.92;2.38;;;33.00;56.20;;;;;;5071281;28;20188;-59
2022/06/12 06:29:53;;;;;;;3.42;2.08;;;33.00;55.80;;;;;;5071981;28;20183;-60
2022/06/12 06:32:19;;;;;;;3.58;2.50;;;33.30;54.80;;;;;;5071586;28;20623;-59
2022/06/12 06:34:45;;;;;;;3.95;2.60;;;33.60;54.60;;;;;;5072059;28;20192;-59
2022/06/12 06:37:12;;;;;;;4.13;2.35;;;34.00;54.00;;;;;;5071675;28;20186;-60
2022/06/12 06:39:39;;;;;;;2.90;2.05;;;34.00;54.10;;;;;;5070083;28;20177;-61
2022/06/12 06:42:06;;;;;;;2.05;1.90;;;34.00;53.90;;;;;;5071660;28;20200;-60
2022/06/12 06:47:17;;;;;;;4.25;2.10;;;34.70;52.20;;;;;;5069480;28;20202;-61
2022/06/12 06:49:42;;;;;;;1.92;1.83;;;35.20;51.50;;;;;;5070776;28;20267;-61
2022/06/12 06:52:08;;;;;;;3.83;2.40;;;35.60;52.10;;;;;;5070911;28;20200;-61
2022/06/12 06:54:34;;;;;;;2.95;2.22;;;35.80;52.30;;;;;;5071034;28;20176;-61
2022/06/12 06:57:00;;;;;;;3.55;2.13;;;36.00;51.40;;;;;;5071648;28;20180;-61
2022/06/12 06:59:26;;;;;;;3.85;2.30;;;36.20;50.90;;;;;;5073905;28;20586;-61
2022/06/12 07:01:52;;;;;;;2.30;2.10;;;36.40;49.90;;;;;;5074085;28;20250;-60
2022/06/12 07:04:18;;;;;;;2.28;2.08;;;36.50;50.10;;;;;;5071189;28;20172;-60
2022/06/12 07:06:44;;;;;;;3.42;2.45;;;36.70;49.50;;;;;;5071319;28;20176;-60
2022/06/12 07:09:10;;;;;;;2.53;1.88;;;37.00;48.40;;;;;;5072275;28;20237;-59
2022/06/12 07:11:35;;;;;;;3.92;2.15;;;37.10;48.50;;;;;;5070980;28;20576;-60
2022/06/12 07:14:01;;;;;;;4.10;1.95;;;36.70;47.70;;;;;;5077418;28;20176;-60
2022/06/12 07:16:29;;;;;;;2.53;2.17;;;36.30;48.20;;;;;;5078668;28;20191;-60
2022/06/12 07:18:55;;;;;;;3.78;2.10;;;35.80;48.20;;;;;;5082619;28;20322;-60
2022/06/12 07:21:21;;;;;;;2.28;1.90;;;35.80;48.40;;;;;;5071804;28;20299;-60
2022/06/12 07:23:46;;;;;;;3.22;2.10;;;36.00;48.70;;;;;;5070791;28;20176;-60
2022/06/12 07:26:17;;;;;;;2.67;2.17;;;36.10;48.10;;;;;;5070782;28;20218;-60
2022/06/12 07:28:43;;;;;;;5.80;2.40;;;36.00;48.90;;;;;;5070924;28;20216;-60
2022/06/12 07:31:09;;;;;;;2.08;1.92;;;36.30;48.40;;;;;;5077182;28;20748;-59
2022/06/12 07:33:37;;;;;;;2.50;2.03;;;36.50;48.10;;;;;;5076994;28;20192;-59
2022/06/12 07:36:04;;;;;;;2.45;1.98;;;37.00;47.60;;;;;;5073530;28;20191;-60
2022/06/12 07:38:30;;;;;;;3.17;2.00;;;37.30;47.10;;;;;;5083551;28;20179;-59
2022/06/12 07:41:00;;;;;;;4.20;1.90;;;37.60;46.10;;;;;;5080882;28;20308;-60
2022/06/12 07:43:29;;;;;;;2.17;1.92;;;37.60;46.00;;;;;;5088096;28;20317;-60
2022/06/12 07:45:56;;;;;;;3.85;1.90;;;37.50;45.80;;;;;;5078127;28;20215;-60
2022/06/12 07:48:24;;;;;;;2.42;2.10;;;37.70;45.40;;;;;;5073532;28;20175;-60
2022/06/12 07:50:50;;;;;;;3.80;2.25;;;37.50;45.30;;;;;;5074167;28;20180;-60
2022/06/12 07:53:17;;;;;;;3.47;2.25;;;37.50;45.40;;;;;;5074015;28;20230;-60
2022/06/12 07:55:43;;;;;;;4.15;2.10;;;37.70;45.00;;;;;;5073140;28;20238;-60
2022/06/12 07:58:09;;;;;;;3.05;2.05;;;37.80;45.80;;;;;;5069286;28;20194;-60
2022/06/12 08:00:37;;;;;;;2.15;1.95;;;38.00;45.00;;;;;;5073604;28;20219;-60
2022/06/12 08:03:02;;;;;;;2.67;2.10;;;38.20;44.50;;;;;;5073885;28;20176;-60
2022/06/12 08:05:29;;;;;;;1.92;1.73;;;38.10;43.90;;;;;;5073285;28;20187;-60
2022/06/12 08:07:55;;;;;;;5.25;2.45;;;37.90;43.40;;;;;;5072098;28;20180;-60
2022/06/12 08:10:20;;;;;;;1.65;1.52;;;37.80;43.50;;;;;;5073566;28;20263;-60
2022/06/12 08:12:47;;;;;;;3.20;1.90;;;37.70;44.50;;;;;;5073634;28;20593;-60
2022/06/12 08:15:21;;;;;;;2.17;1.92;;;37.70;43.80;;;;;;5073648;28;20176;-60
2022/06/12 08:17:46;;;;;;;3.63;2.30;;;37.60;44.10;;;;;;5073778;28;20173;-60
2022/06/12 08:20:25;;;;;;;3.28;2.50;;;37.00;44.90;;;;;;5072737;28;20289;-60
2022/06/12 08:23:26;;;;;;;2.85;2.13;;;36.70;46.50;;;;;;5064716;28;20219;-60
2022/06/12 08:25:55;;;;;;;4.88;1.92;;;36.90;47.20;;;;;;5072928;28;20206;-60
2022/06/12 08:28:23;;;;;;;3.60;2.08;;;37.00;46.50;;;;;;5073981;28;20259;-60
2022/06/12 08:30:48;;;;;;;2.45;1.85;;;37.10;45.70;;;;;;5073231;28;20180;-60
2022/06/12 08:33:14;;;;;;;2.67;1.80;;;36.80;46.50;;;;;;5072990;28;20304;-60
2022/06/12 08:35:40;;;;;;;2.28;1.65;;;36.70;46.70;;;;;;5070454;28;20270;-60
2022/06/12 08:38:06;;;;;;;1.77;1.67;;;36.70;45.80;;;;;;5072506;28;20180;-60
2022/06/12 08:40:39;;;;;;;3.10;1.60;;;36.70;45.60;;;;;;5073051;28;20560;-59
2022/06/12 08:43:26;;;;;;;3.70;1.77;;;37.00;45.30;;;;;;5072662;28;20180;-60
2022/06/12 08:45:57;;;;;;;1.58;1.48;;;37.10;45.60;;;;;;5072857;28;20196;-60
2022/06/12 08:48:57;;;;;;;1.75;1.60;;;37.10;44.30;;;;;;5072285;28;20255;-60
2022/06/12 08:51:42;;;;;;;2.10;1.40;;;37.10;43.40;;;;;;5072016;28;20168;-60
2022/06/12 08:54:18;;;;;;;3.15;1.77;;;37.00;45.00;;;;;;5064267;28;20540;-60
2022/06/12 08:57:00;;;;;;;2.88;1.73;;;36.80;44.70;;;;;;5062675;28;20184;-60
2022/06/12 08:59:34;;;;;;;1.75;1.40;;;36.60;45.20;;;;;;5072630;28;20192;-60
2022/06/12 09:02:03;;;;;;;2.40;1.50;;;36.60;45.00;;;;;;5071741;28;20219;-60
2022/06/12 09:04:29;;;;;;;1.50;1.40;;;36.60;44.30;;;;;;5072636;28;20180;-60
2022/06/12 09:07:08;;;;;;;1.77;1.50;;;36.60;44.10;;;;;;5072334;28;20233;-60
2022/06/12 09:09:50;;;;;;;2.38;1.48;;;36.50;45.10;;;;;;5070852;28;20199;-60
2022/06/12 09:12:21;;;;;;;1.60;1.50;;;36.40;45.50;;;;;;5072439;28;20255;-60
2022/06/12 09:14:51;;;;;;;1.42;1.33;;;36.40;44.60;;;;;;5073077;28;20267;-60
2022/06/12 09:17:49;;;;;;;2.88;1.88;;;36.60;44.20;;;;;;5072442;28;20222;-60
2022/06/12 09:20:50;;;;;;;3.05;1.33;;;36.60;44.40;;;;;;5072472;28;20883;-58
2022/06/12 09:23:37;;;;;;;1.70;1.60;;;36.60;44.10;;;;;;5071051;28;20192;-58
2022/06/12 09:26:21;;;;;;;3.58;1.60;;;36.60;44.80;;;;;;5071244;28;20600;-58
2022/06/12 09:28:56;;;;;;;2.83;1.52;;;36.60;45.20;;;;;;5067492;28;20284;-58
2022/06/12 09:31:33;;;;;;;2.60;1.50;;;36.80;43.90;;;;;;5071144;28;20635;-58
2022/06/12 09:34:20;;;;;;;3.00;1.52;;;36.70;44.50;;;;;;5071722;28;20238;-59
2022/06/12 09:38:18;;;;;;;2.20;1.55;;;36.60;43.90;;;;;;5071210;28;20176;-59
2022/06/12 09:40:12;;;;;;;1.60;1.50;;;36.70;45.50;;;;;;5072302;28;20564;-59
2022/06/12 09:43:02;;;;;;;2.35;1.30;;;36.90;44.70;;;;;;5072297;28;20634;-58
2022/06/12 09:45:55;;;;;;;5.43;1.63;;;36.80;44.20;;;;;;5071133;28;20180;-58
2022/06/12 09:48:20;;;;;;;3.25;1.90;;;36.30;43.10;;;;;;5072191;28;20172;-58
2022/06/12 09:51:08;;;;;;;2.40;1.55;;;36.10;45.40;;;;;;5072298;28;20259;-58
2022/06/12 09:53:45;;;;;;;3.30;1.60;;;36.00;45.00;;;;;;5072490;28;20172;-58
2022/06/12 09:56:18;;;;;;;1.73;1.40;;;36.30;45.80;;;;;;5072131;28;20271;-58
2022/06/12 09:58:51;;;;;;;2.92;1.45;;;36.40;44.80;;;;;;5072242;28;20715;-58
2022/06/12 10:01:22;;;;;;;1.80;1.45;;;36.40;44.30;;;;;;5071826;28;20737;-59
2022/06/12 10:03:57;;;;;;;2.38;1.40;;;36.20;45.10;;;;;;5071446;28;20187;-58
2022/06/12 10:06:30;;;;;;;3.67;1.55;;;36.10;44.00;;;;;;5072014;28;20179;-58
2022/06/12 10:09:05;;;;;;;2.03;1.30;;;36.30;44.10;;;;;;5071940;28;20535;-59
2022/06/12 10:11:40;;;;;;;2.80;1.65;;;36.50;44.10;;;;;;5072053;28;20186;-59
2022/06/12 10:14:21;;;;;;;2.05;1.30;;;36.70;43.30;;;;;;5072000;28;20179;-59
2022/06/12 10:16:58;;;;;;;3.10;1.70;;;37.00;43.50;;;;;;5072084;28;20180;-58
2022/06/12 10:19:32;;;;;;;1.30;1.20;;;37.10;44.00;;;;;;5071801;28;20601;-59
2022/06/12 10:22:03;;;;;;;3.83;1.50;;;37.30;42.60;;;;;;5071643;28;20230;-58
2022/06/12 10:24:28;;;;;;;1.50;1.40;;;37.30;43.60;;;;;;5071853;28;20266;-59
2022/06/12 10:26:59;;;;;;;2.97;1.92;;;37.40;42.80;;;;;;5071470;28;20274;-59
2022/06/12 10:29:25;;;;;;;1.88;1.38;;;37.40;42.70;;;;;;5071977;28;20168;-59
2022/06/12 10:32:01;;;;;;;3.38;1.30;;;37.20;42.60;;;;;;5071577;28;20657;-58
2022/06/12 10:34:29;;;;;;;1.90;1.38;;;37.10;44.00;;;;;;5071798;28;20203;-59
2022/06/12 10:37:08;;;;;;;3.05;1.50;;;37.00;43.70;;;;;;5071881;28;20263;-59
2022/06/12 10:39:35;;;;;;;3.20;1.35;;;36.90;43.80;;;;;;5071744;28;20635;-58
2022/06/12 10:42:07;;;;;;;2.28;1.45;;;37.00;43.90;;;;;;5071660;28;20307;-59
2022/06/12 10:44:57;;;;;;;4.40;1.45;;;36.90;43.00;;;;;;5071760;28;20255;-59
2022/06/12 10:47:25;;;;;;;3.45;1.52;;;36.50;42.70;;;;;;5071661;28;20249;-59
2022/06/12 10:50:06;;;;;;;1.50;1.40;;;36.20;43.80;;;;;;5071708;28;20211;-59
2022/06/12 10:52:33;;;;;;;3.88;1.60;;;36.00;45.60;;;;;;5071732;28;20220;-58
2022/06/12 10:55:00;;;;;;;1.40;1.30;;;36.10;44.90;;;;;;5071293;28;20172;-58
2022/06/12 10:57:51;;;;;;;2.13;1.33;;;35.90;44.80;;;;;;5071598;28;20271;-58
2022/06/12 11:00:20;;;;;;;1.60;1.50;;;35.50;45.30;;;;;;5071094;28;20216;-58
2022/06/12 11:03:15;;;;;;;1.80;1.40;;;34.90;45.80;;;;;;5071517;28;20266;-58
2022/06/12 11:05:50;;;;;;;1.63;1.50;;;34.60;47.50;;;;;;5071510;28;20651;-58
2022/06/12 11:08:44;;;;;;;3.80;1.23;;;34.60;47.50;;;;;;5071298;28;20184;-58
2022/06/12 11:11:31;;;;;;;2.40;1.48;;;34.50;46.40;;;;;;5071271;28;20513;-58
2022/06/12 11:14:12;;;;;;;2.97;1.42;;;34.50;47.10;;;;;;5072111;28;20532;-58
2022/06/12 11:17:02;;;;;;;2.15;1.30;;;34.80;46.60;;;;;;5075304;28;20176;-58
2022/06/12 11:20:04;;;;;;;2.60;2.15;;;35.00;46.00;;;;;;5075163;28;20280;-58
2022/06/12 11:22:59;;;;;;;3.15;1.60;;;35.30;45.90;;;;;;5075213;28;20188;-58
2022/06/12 11:25:29;;;;;;;2.97;1.48;;;35.70;45.40;;;;;;5075006;28;20241;-58
2022/06/12 11:28:25;;;;;;;2.08;1.60;;;36.00;45.00;;;;;;5074921;28;20526;-58
2022/06/12 11:30:57;;;;;;;1.65;1.40;;;35.60;45.00;;;;;;5075234;28;20190;-59
2022/06/12 11:33:38;;;;;;;1.42;1.33;;;35.50;46.00;;;;;;5075036;28;20175;-58
2022/06/12 11:36:32;;;;;;;2.10;1.50;;;35.30;46.00;;;;;;5074754;28;20194;-59
2022/06/12 11:39:14;;;;;;;1.75;1.48;;;35.20;46.30;;;;;;5072653;28;20269;-60
2022/06/12 11:42:19;;;;;;;1.63;1.38;;;35.00;46.60;;;;;;5074575;28;20314;-59
2022/06/12 11:45:24;;;;;;;2.17;1.30;;;34.60;45.80;;;;;;5052438;28;20651;-59
2022/06/12 11:48:21;;;;;;;2.97;1.40;;;34.70;45.10;;;;;;5066011;28;20224;-60
2022/06/12 11:51:12;;;;;;;1.70;1.38;;;34.80;45.80;;;;;;5074800;28;20263;-59
2022/06/12 11:53:44;;;;;;;1.92;1.20;;;34.60;45.60;;;;;;5074820;28;20695;-59
2022/06/12 11:56:30;;;;;;;2.53;1.67;;;34.40;45.60;;;;;;5074463;28;20187;-59
2022/06/12 11:59:21;;;;;;;1.65;1.45;;;34.50;46.40;;;;;;5074264;28;20258;-60
2022/06/12 12:02:11;;;;;;;2.47;1.65;;;34.70;47.20;;;;;;5074344;28;20219;-59
2022/06/12 12:05:01;;;;;;;2.65;1.40;;;35.10;46.30;;;;;;5074022;28;20179;-60
2022/06/12 12:07:44;;;;;;;1.35;1.23;;;35.30;45.60;;;;;;5074740;28;20176;-59
2022/06/12 12:10:34;;;;;;;3.55;1.40;;;35.40;44.80;;;;;;5073205;28;20180;-59
2022/06/12 12:13:06;;;;;;;2.38;1.70;;;35.30;44.70;;;;;;5074159;28;20187;-59
2022/06/12 12:15:43;;;;;;;3.63;1.70;;;35.40;45.20;;;;;;5073751;28;20257;-59
2022/06/12 12:18:37;;;;;;;4.68;1.65;;;35.40;44.70;;;;;;5073465;28;20176;-61
2022/06/12 12:21:19;;;;;;;4.00;1.58;;;35.10;45.10;;;;;;5064646;28;20734;-61
2022/06/12 12:23:47;;;;;;;2.45;1.42;;;35.00;45.30;;;;;;5059073;28;20179;-60
2022/06/12 12:26:23;;;;;;;2.22;1.52;;;34.60;46.40;;;;;;5072283;28;20670;-59
2022/06/12 12:28:55;;;;;;;1.75;1.50;;;34.30;45.60;;;;;;5073445;28;20192;-60
2022/06/12 12:31:22;;;;;;;9.40;7.05;;;34.30;45.70;;;;;;5072003;28;20191;-60
2022/06/12 12:33:50;;;;;;;2.40;2.20;;;34.50;45.60;;;;;;5073072;28;20187;-60
2022/06/12 12:41:53;;;;;;;2.97;1.50;;;34.10;46.40;;;;;;5071253;28;20223;-60
2022/06/12 12:44:35;;;;;;;2.83;1.48;;;33.70;46.60;;;;;;5072650;28;20635;-60
2022/06/12 12:47:01;;;;;;;2.50;1.58;;;33.70;47.00;;;;;;5072395;28;20267;-60
2022/06/12 12:49:30;;;;;;;2.95;1.48;;;33.80;46.70;;;;;;5071697;28;20599;-60
2022/06/12 12:52:19;;;;;;;4.35;2.10;;;34.00;46.70;;;;;;5072723;28;20192;-60
2022/06/12 12:54:54;;;;;;;1.60;1.50;;;34.10;45.90;;;;;;5065770;28;20595;-60
2022/06/12 12:57:36;;;;;;;1.60;1.50;;;34.20;46.30;;;;;;5069310;28;20651;-60
2022/06/12 13:00:04;;;;;;;3.08;2.03;;;33.80;46.00;;;;;;5071023;28;20260;-60
2022/06/12 13:02:40;;;;;;;17.33;11.77;;;33.70;45.30;;;;;;5073462;28;20191;-60
2022/06/12 13:05:22;;;;;;;5.05;1.60;;;33.70;46.40;;;;;;5067789;28;20180;-60
2022/06/12 13:07:53;;;;;;;1.63;1.50;;;33.90;46.80;;;;;;5073098;28;20231;-60
2022/06/12 13:10:53;;;;;;;1.67;1.40;;;33.60;45.60;;;;;;5072990;28;20535;-60
2022/06/12 13:13:28;;;;;;;4.30;1.40;;;33.40;46.70;;;;;;5071594;28;20219;-60
2022/06/12 13:16:05;;;;;;;1.58;1.48;;;33.40;46.40;;;;;;5069420;28;20646;-60
2022/06/12 13:18:55;;;;;;;2.03;1.60;;;33.40;46.40;;;;;;5062320;28;20179;-61
2022/06/12 13:21:26;;;;;;;2.08;1.23;;;33.50;47.50;;;;;;5072810;28;20208;-60
2022/06/12 13:24:15;;;;;;;1.60;1.50;;;33.50;46.90;;;;;;5073129;28;20177;-60
2022/06/12 13:26:42;;;;;;;1.48;1.33;;;33.30;46.10;;;;;;5072199;28;20177;-60
2022/06/12 13:29:21;;;;;;;3.10;1.60;;;33.00;46.00;;;;;;5052827;28;20177;-60
2022/06/12 13:31:58;;;;;;;1.95;1.45;;;32.80;46.10;;;;;;5058523;28;20253;-59
2022/06/12 13:34:24;;;;;;;5.28;4.75;;;32.70;46.10;;;;;;5071835;28;20545;-59
2022/06/12 13:36:51;;;;;;;3.28;1.80;;;32.80;45.20;;;;;;5070890;28;20188;-60
2022/06/12 13:39:21;;;;;;;3.55;2.55;;;32.70;45.50;;;;;;5072354;28;20264;-60